• Join FlightAware (Why Join?)
  • Login
  • US Flag 
12:05PM EDT


 

Airport Tracker/Info


-or-


 

Live Flight TrackerFlight Track Log ✈ EJA646 ✈ 17-Apr-2013 ✈ KHTS - KMKL

Flight Track Log - Related Links

Times and Time Zones

All times are in EDT time to prevent confusion due to time zone crossing. See the EJA646 flight status page for this flight to view local times or setup timezone preferences in your user account.

Time Position Orientation Groundspeed Altitude Reporting Facility
EDT Latitude Longitude Course Direction KTS MPH feet Rate Location/Type
04:44PM 38.3961 -82.6053 270° West 212 244 3,200  Level Indianapolis Center
04:45PM 38.4389 -82.6675 311° West 228 262 6,000 2,820 Climbing Indianapolis Center
04:46PM 38.4822 -82.7489 304° West 277 319 9,100 3,060 Climbing Indianapolis Center
04:47PM 38.4958 -82.8658 278° West 285 328 12,300 2,220 Climbing Indianapolis Center
04:49PM 38.5083 -82.9717 279° West 300 345 13,700 1,740 Climbing Indianapolis Center
04:50PM 38.6333 -83.1457 270° West  Level FlightAware Approximate
04:50PM 38.5214 -83.0947 278° West 343 395 15,900  Level Indianapolis Center
04:51PM 38.5339 -83.2108 278° West 333 383 18,500 2,520 Climbing Indianapolis Center
04:52PM 38.5467 -83.3219 278° West 322 371 21,200 2,700 Climbing Indianapolis Center
04:53PM 38.5597 -83.4483 278° West 310 357 24,100 2,220 Climbing Indianapolis Center
04:54PM 38.5725 -83.5578 279° West 313 360 25,800 1,260 Climbing Indianapolis Center
04:55PM 38.5844 -83.6744 277° West 328 377 26,800 900 Climbing Indianapolis Center
04:56PM 38.5975 -83.8011 278° West 351 404 27,700 780 Climbing Indianapolis Center
04:57PM 38.6094 -83.9306 277° West 363 418 28,500 960 Climbing Indianapolis Center
04:58PM 38.5708 -84.0542 248° West 372 428 29,800 1,320 Climbing Indianapolis Center
04:59PM 38.5086 -84.1861 239° Southwest 372 428 31,300 1,260 Climbing Indianapolis Center
05:00PM 38.4544 -84.2972 238° Southwest 370 426 32,500 1,500 Climbing Indianapolis Center
05:01PM 38.3903 -84.3947 230° Southwest 359 413 34,400 1,620 Climbing Indianapolis Center
05:02PM 38.3281 -84.4847 229° Southwest 343 395 35,900 960 Climbing Indianapolis Center
05:03PM 38.2628 -84.5789 229° Southwest 352 405 36,500 1,080 Climbing Indianapolis Center
05:04PM 38.1858 -84.6875 228° Southwest 351 404 38,200 1,320 Climbing Indianapolis Center
05:05PM 38.1231 -84.7775 228° Southwest 344 396 39,300 840 Climbing Indianapolis Center
05:06PM 38.0608 -84.8683 229° Southwest 343 395 40,000 300 Climbing Indianapolis Center
05:07PM 37.9919 -84.9653 228° Southwest 366 421 40,000  Level Indianapolis Center
05:08PM 37.9225 -85.0633 228° Southwest 374 430 40,000  Level Indianapolis Center
05:09PM 37.8411 -85.1781 228° Southwest 376 433 40,000  Level Indianapolis Center
05:10PM 37.7736 -85.2744 228° Southwest 369 425 40,000  Level Indianapolis Center
05:11PM 37.7050 -85.3700 228° Southwest 370 426 40,000  Level Indianapolis Center
05:12PM 37.6358 -85.4683 228° Southwest 373 429 40,000  Level Indianapolis Center
05:13PM 37.5656 -85.5661 228° Southwest 373 429 40,000  Level Indianapolis Center
05:14PM 37.4967 -85.6617 228° Southwest 368 423 40,000  Level Indianapolis Center
05:15PM 37.4278 -85.7581 228° Southwest 369 425 40,000  Level Indianapolis Center
05:16PM 37.3522 -85.8617 227° Southwest 369 425 40,000  Level Indianapolis Center
05:17PM 37.3167 -85.9106 228° Southwest 359 413 40,000  Level Memphis Center
05:17PM 37.2825 -85.9589 228° Southwest 371 427 40,000  Level Indianapolis Center
05:18PM 37.2092 -86.0500 225° Southwest 371 427 40,000  Level Indianapolis Center
05:19PM 37.1256 -86.1297 217° Southwest 373 429 40,000  Level Indianapolis Center
05:20PM 37.0942 -86.1594 217° Southwest 375 432 40,000 -1,140 Level Memphis Center
05:21PM 37.0136 -86.2417 219° Southwest 380 437 38,500 -1,800 Descending Memphis Center
05:22PM 36.9350 -86.3261 221° Southwest 387 445 36,500 -1,800 Descending Memphis Center
05:23PM 36.8503 -86.4083 218° Southwest 388 447 35,000 -960 Descending Memphis Center
05:24PM 36.7519 -86.4675 206° Southwest 383 441 34,600  Descending Memphis Center
05:25PM 36.6600 -86.5183 204° Southwest 383 441 35,000 -1,680 Climbing Memphis Center
05:26PM 36.5636 -86.5722 204° Southwest 357 411 31,300 -2,700 Descending Memphis Center
05:27PM 36.5122 -86.6622 235° Southwest 311 358 29,700 -1,620 Descending Memphis Center
05:28PM 36.4678 -86.7831 245° Southwest 348 400 28,100 -900 Descending Memphis Center
05:29PM 36.4192 -86.9117 245° Southwest 391 450 28,000 -360 Descending Memphis Center
05:30PM 36.3722 -87.0244 243° Southwest 409 471 27,400 -1,200 Descending Memphis Center
05:31PM 36.3214 -87.1500 243° Southwest 409 471 25,600 -1,920 Descending Memphis Center
05:32PM 36.2686 -87.2861 244° Southwest 409 471 23,600 -2,100 Descending Memphis Center
05:33PM 36.2278 -87.4111 248° West 402 463 21,500 -2,040 Descending Memphis Center
05:34PM 36.2244 -87.5322 268° West 369 425 19,600 -1,260 Descending Memphis Center
05:35PM 36.2208 -87.6583 268° West 369 425 19,000 -1,140 Descending Memphis Center
05:36PM 36.2153 -87.7872 267° West 369 425 17,400 -1,680 Descending Memphis Center
05:37PM 36.1694 -87.8964 243° Southwest 354 407 15,700 -1,800 Descending Memphis Center
05:38PM 36.1025 -87.9808 226° Southwest 354 407 13,900 -1,800 Descending Memphis Center
05:39PM 36.0392 -88.0622 226° Southwest 338 389 12,100 -960 Descending Memphis Center
05:40PM 35.9864 -88.1356 228° Southwest 332 382 12,000 -120 Descending Memphis Center
05:41PM 35.9378 -88.2164 233° Southwest 312 359 11,900  Descending Memphis Center
05:42PM 35.9039 -88.3042 245° Southwest 301 346 12,000  Climbing Memphis Center
05:43PM 35.8636 -88.4000 243° Southwest 301 346 12,000 -720 Level Memphis Center
05:44PM 35.8317 -88.4878 246° West 301 346 10,600 -1,980 Descending Memphis Center
05:45PM 35.7994 -88.5681 244° Southwest 288 331 8,100 -2,580 Descending Memphis Center
05:46PM 35.7736 -88.6478 248° West 269 310 5,500 -1,920 Descending Memphis Center
05:47PM 35.7411 -88.7253 243° Southwest 254 292 4,300 -1,080 Descending Memphis Center
05:48PM 35.7086 -88.7922 239° Southwest 242 278 3,400 -960 Descending Memphis Center
05:49PM 35.6800 -88.8389 233° Southwest 237 273 2,400 -1,080 Descending Memphis Center
05:50PM 35.6389 -88.8933 227° Southwest 208 239 1,300 -660 Descending Memphis Center
05:51PM 35.6064 -88.9450 232° Southwest 197 227 1,100 -240 Descending Memphis Center